Time;durP1;ratioP1;P1;durP2;ratioP2;P2;SDS_P1;SDS_P2;PMS_P1;PMS_P2;Temp;Humidity;BMP_temperature;BMP_pressure;BME280_temperature;BME280_humidity;BME280_pressure;Samples;Min_cycle;Max_cycle;Signal;HPM_P1;HPM_P2
2024/04/21 00:04:37;;;;;;;2.00;1.80;;;7.90;41.70;;;;;;11151710;26;20263;-72
2024/04/21 00:09:42;;;;;;;1.80;1.70;;;7.80;41.90;;;;;;11147186;26;20310;-72
2024/04/21 00:14:50;;;;;;;1.80;1.70;;;7.80;41.90;;;;;;11143408;26;20260;-72
2024/04/21 00:19:55;;;;;;;1.90;1.80;;;7.80;42.40;;;;;;11153939;26;20300;-72
2024/04/21 00:25:03;;;;;;;2.30;2.00;;;7.80;42.30;;;;;;11145013;26;20895;-72
2024/04/21 00:30:12;;;;;;;1.90;1.80;;;7.80;42.30;;;;;;11161803;26;20357;-72
2024/04/21 00:35:17;;;;;;;1.80;1.70;;;7.90;42.60;;;;;;11154488;26;21132;-72
2024/04/21 00:40:22;;;;;;;1.90;1.80;;;7.90;42.30;;;;;;11165317;26;20258;-72
2024/04/21 00:45:31;;;;;;;1.77;1.67;;;7.90;42.20;;;;;;11157411;26;20314;-72
2024/04/21 00:50:43;;;;;;;2.20;2.10;;;7.90;42.50;;;;;;11162094;26;20268;-72
2024/04/21 00:55:49;;;;;;;2.00;1.90;;;7.80;42.40;;;;;;11154464;26;20297;-72
2024/04/21 01:00:57;;;;;;;2.33;2.10;;;7.80;42.30;;;;;;11161618;26;20308;-72
2024/04/21 01:06:02;;;;;;;2.20;2.00;;;7.80;42.50;;;;;;11152652;26;20294;-72
2024/04/21 01:11:18;;;;;;;2.80;1.70;;;7.90;42.30;;;;;;11155589;26;20259;-72
2024/04/21 01:16:25;;;;;;;2.30;2.20;;;7.80;42.60;;;;;;11132695;26;20308;-72
2024/04/21 01:21:30;;;;;;;2.23;2.03;;;7.80;42.40;;;;;;11151478;26;20297;-72
2024/04/21 01:26:38;;;;;;;2.17;1.90;;;7.90;42.30;;;;;;11154241;26;20293;-72
2024/04/21 01:31:44;;;;;;;2.27;2.17;;;7.80;42.30;;;;;;11147523;26;20251;-73
2024/04/21 01:36:49;;;;;;;2.40;2.20;;;7.80;42.30;;;;;;11171331;26;20263;-72
2024/04/21 01:41:57;;;;;;;2.37;2.23;;;7.90;42.30;;;;;;11153177;26;20278;-72
2024/04/21 01:47:02;;;;;;;3.30;3.10;;;8.00;42.40;;;;;;11147589;26;20259;-72
2024/04/21 01:52:08;;;;;;;3.70;3.20;;;8.00;42.00;;;;;;11156613;26;20282;-72
2024/04/21 01:57:15;;;;;;;3.20;3.00;;;8.00;41.90;;;;;;11152722;26;20274;-72
2024/04/21 02:02:20;;;;;;;3.10;2.90;;;7.90;41.90;;;;;;11160404;26;20324;-72
2024/04/21 02:07:25;;;;;;;3.03;2.83;;;7.90;41.90;;;;;;11153415;26;20254;-72
2024/04/21 02:12:35;;;;;;;3.53;3.33;;;7.90;41.90;;;;;;11137335;26;20259;-72
2024/04/21 02:17:41;;;;;;;3.70;3.40;;;7.90;41.90;;;;;;11150699;26;20672;-72
2024/04/21 02:22:46;;;;;;;3.60;3.30;;;7.90;41.70;;;;;;11131535;26;20307;-72
2024/04/21 02:27:53;;;;;;;2.33;2.20;;;7.80;41.60;;;;;;11148746;26;20265;-72
2024/04/21 02:32:59;;;;;;;2.60;2.40;;;7.70;42.00;;;;;;11153759;26;20268;-72
2024/04/21 02:38:04;;;;;;;2.83;2.63;;;7.60;42.10;;;;;;11132118;26;20285;-72
2024/04/21 02:43:12;;;;;;;2.53;2.33;;;7.60;42.20;;;;;;11151406;26;20255;-72
2024/04/21 02:48:17;;;;;;;3.20;3.00;;;7.60;42.60;;;;;;11161293;26;20263;-72
2024/04/21 02:53:22;;;;;;;3.03;2.83;;;7.60;42.50;;;;;;11142349;26;20334;-72
2024/04/21 02:58:30;;;;;;;3.17;2.90;;;7.60;42.40;;;;;;11154176;26;20270;-72
2024/04/21 03:03:35;;;;;;;3.10;2.90;;;7.60;42.70;;;;;;11148397;26;20255;-72
2024/04/21 03:08:40;;;;;;;3.13;2.93;;;7.60;42.50;;;;;;11146411;26;20259;-72
2024/04/21 03:13:48;;;;;;;3.10;2.90;;;7.60;42.60;;;;;;11145051;26;20263;-72
2024/04/21 03:18:53;;;;;;;3.37;3.10;;;7.60;43.00;;;;;;11133406;26;20405;-72
2024/04/21 03:23:58;;;;;;;3.63;3.10;;;7.70;42.70;;;;;;11131863;26;20250;-72
2024/04/21 03:29:06;;;;;;;3.00;2.80;;;7.70;42.60;;;;;;11151093;26;20768;-72
2024/04/21 03:34:11;;;;;;;2.80;2.60;;;7.60;42.80;;;;;;11147660;26;20254;-72
2024/04/21 03:39:15;;;;;;;3.00;2.80;;;7.60;42.70;;;;;;11128184;26;20272;-72
2024/04/21 03:44:23;;;;;;;3.10;2.90;;;7.70;42.90;;;;;;11140937;26;20258;-72
2024/04/21 03:49:30;;;;;;;3.20;3.00;;;7.70;43.00;;;;;;11143183;26;20652;-72
2024/04/21 03:54:35;;;;;;;3.30;3.10;;;7.60;42.70;;;;;;11139143;26;20385;-71
2024/04/21 03:59:42;;;;;;;3.60;3.30;;;7.60;42.80;;;;;;11146501;26;20301;-72
2024/04/21 04:04:47;;;;;;;3.70;3.40;;;7.60;43.10;;;;;;11130616;26;20254;-72
2024/04/21 04:09:52;;;;;;;4.50;4.13;;;7.60;42.90;;;;;;11131245;26;20266;-72
2024/04/21 04:15:00;;;;;;;3.73;3.43;;;7.60;43.60;;;;;;11137088;26;20306;-72
2024/04/21 04:20:06;;;;;;;3.90;3.60;;;7.60;43.20;;;;;;11128437;26;20292;-72
2024/04/21 04:25:11;;;;;;;4.30;4.00;;;7.60;43.10;;;;;;11143408;26;20761;-72
2024/04/21 04:30:19;;;;;;;3.93;3.63;;;7.60;43.00;;;;;;11146183;26;20262;-71
2024/04/21 04:35:24;;;;;;;3.57;3.33;;;7.60;43.40;;;;;;11135496;26;20258;-72
2024/04/21 04:40:29;;;;;;;3.97;3.67;;;7.60;43.20;;;;;;11152088;26;20305;-72
2024/04/21 04:45:37;;;;;;;3.90;3.60;;;7.60;43.20;;;;;;11131066;26;20275;-72
2024/04/21 04:50:42;;;;;;;4.30;4.00;;;7.60;43.60;;;;;;11145326;26;20260;-72
2024/04/21 04:55:47;;;;;;;4.60;3.97;;;7.60;43.30;;;;;;11151511;26;20254;-72
2024/04/21 05:00:56;;;;;;;4.07;3.77;;;7.60;43.40;;;;;;11151052;26;20271;-72
2024/04/21 05:06:01;;;;;;;4.10;3.70;;;7.60;43.70;;;;;;11143151;26;20472;-72
2024/04/21 05:11:06;;;;;;;4.27;3.87;;;7.70;43.60;;;;;;11157700;26;20309;-72
2024/04/21 05:16:14;;;;;;;4.77;4.37;;;7.70;44.20;;;;;;11151762;26;20830;-72
2024/04/21 05:21:18;;;;;;;4.10;3.80;;;7.70;43.90;;;;;;11155901;26;20314;-72
2024/04/21 05:26:23;;;;;;;4.33;4.03;;;7.70;43.70;;;;;;11155889;26;20781;-72
2024/04/21 05:31:31;;;;;;;4.37;3.97;;;7.70;43.70;;;;;;11153482;26;20302;-72
2024/04/21 05:36:36;;;;;;;4.27;3.97;;;7.70;44.10;;;;;;11151344;26;20255;-72
2024/04/21 05:41:41;;;;;;;4.47;4.17;;;7.70;43.90;;;;;;11147803;26;20923;-72
2024/04/21 05:46:49;;;;;;;5.10;4.70;;;7.70;43.90;;;;;;11153555;26;20258;-72
2024/04/21 05:51:54;;;;;;;4.80;4.40;;;7.80;44.40;;;;;;11120359;26;20297;-72
2024/04/21 05:56:59;;;;;;;4.90;4.50;;;7.80;43.90;;;;;;11157540;26;20392;-72
2024/04/21 06:02:07;;;;;;;5.93;5.33;;;7.90;44.00;;;;;;11159617;26;20310;-71
2024/04/21 06:07:12;;;;;;;8.13;7.33;;;7.90;44.30;;;;;;11113632;26;20266;-72
2024/04/21 06:12:18;;;;;;;6.53;5.93;;;7.80;43.90;;;;;;11142221;26;20313;-72
2024/04/21 06:17:25;;;;;;;5.43;4.77;;;7.90;44.10;;;;;;11114443;26;20262;-72
2024/04/21 06:22:31;;;;;;;5.30;4.83;;;8.00;44.50;;;;;;11156999;26;20292;-72
2024/04/21 06:27:36;;;;;;;4.30;4.00;;;8.00;44.10;;;;;;11148629;26;20263;-72
2024/04/21 06:32:43;;;;;;;4.40;4.00;;;8.10;44.10;;;;;;11151749;26;20263;-72
2024/04/21 06:37:48;;;;;;;4.00;3.70;;;8.10;44.30;;;;;;11158895;26;20746;-72
2024/04/21 06:42:53;;;;;;;3.37;3.17;;;8.20;44.20;;;;;;11157185;26;20768;-71
2024/04/21 06:48:01;;;;;;;3.07;2.87;;;8.30;44.30;;;;;;11157393;26;20366;-72
2024/04/21 06:53:06;;;;;;;2.80;2.53;;;8.30;44.30;;;;;;11155661;26;20254;-72
2024/04/21 06:58:11;;;;;;;2.30;2.20;;;8.40;44.10;;;;;;11149883;26;20255;-72
2024/04/21 07:03:19;;;;;;;2.10;2.00;;;8.40;44.10;;;;;;11156749;26;20308;-72
2024/04/21 07:08:24;;;;;;;2.83;2.53;;;8.40;43.90;;;;;;11150662;26;20262;-72
2024/04/21 07:13:29;;;;;;;2.10;2.00;;;8.50;43.80;;;;;;11152970;26;20867;-72
2024/04/21 07:18:37;;;;;;;2.50;2.30;;;8.60;43.80;;;;;;11151058;26;20300;-72
2024/04/21 07:23:42;;;;;;;3.47;3.20;;;8.60;43.70;;;;;;11146501;26;20254;-72
2024/04/21 07:28:47;;;;;;;4.13;3.43;;;8.60;43.70;;;;;;11139440;26;20301;-73
2024/04/21 07:33:54;;;;;;;2.53;2.33;;;8.60;43.70;;;;;;11152813;26;20262;-72
2024/04/21 07:38:59;;;;;;;2.90;2.60;;;8.50;44.00;;;;;;11162736;26;20263;-72
2024/04/21 07:44:04;;;;;;;2.50;2.30;;;8.50;44.10;;;;;;11151715;26;20358;-72
2024/04/21 07:49:12;;;;;;;3.07;2.00;;;8.50;44.40;;;;;;11137547;26;20277;-72
2024/04/21 07:54:17;;;;;;;2.43;2.23;;;8.60;44.50;;;;;;11161034;26;20259;-72
2024/04/21 07:59:22;;;;;;;2.07;1.90;;;8.70;44.10;;;;;;11151059;26;20753;-72
2024/04/21 08:04:30;;;;;;;2.10;1.90;;;8.70;44.10;;;;;;11166683;26;20258;-72
2024/04/21 08:09:35;;;;;;;2.40;2.20;;;8.70;44.40;;;;;;11155554;26;20397;-71
2024/04/21 08:14:40;;;;;;;2.03;1.83;;;8.70;44.20;;;;;;11155091;26;20746;-71
2024/04/21 08:19:48;;;;;;;2.27;2.07;;;8.80;44.40;;;;;;11150475;26;20718;-71
2024/04/21 08:24:53;;;;;;;1.80;1.70;;;8.90;45.00;;;;;;11147048;26;20262;-71
2024/04/21 08:29:58;;;;;;;1.83;1.50;;;9.00;44.60;;;;;;11142682;26;20371;-71
2024/04/21 08:35:06;;;;;;;2.30;1.63;;;9.10;45.00;;;;;;11161149;26;20337;-72
2024/04/21 08:40:12;;;;;;;2.00;1.90;;;9.20;44.90;;;;;;11140274;26;20398;-71
2024/04/21 08:45:23;;;;;;;1.00;1.00;;;9.40;44.50;;;;;;11144925;26;20958;-71
2024/04/21 08:50:32;;;;;;;1.00;1.00;;;9.40;43.30;;;;;;11145022;26;20333;-72
2024/04/21 08:55:39;;;;;;;0.60;0.60;;;9.30;43.00;;;;;;11130219;26;20247;-71
2024/04/21 09:00:44;;;;;;;0.90;0.90;;;9.20;42.80;;;;;;11130918;26;20282;-71
2024/04/21 09:05:54;;;;;;;0.80;0.80;;;9.10;42.70;;;;;;11139959;26;21152;-71
2024/04/21 09:10:59;;;;;;;0.90;0.90;;;8.90;43.50;;;;;;11142572;26;20624;-71
2024/04/21 09:16:05;;;;;;;0.80;0.80;;;8.90;43.60;;;;;;11121940;26;20258;-71
2024/04/21 09:21:13;;;;;;;0.63;0.63;;;8.80;44.00;;;;;;11154364;26;20754;-71
2024/04/21 09:26:20;;;;;;;0.40;0.40;;;8.80;44.60;;;;;;11148999;26;20296;-71
2024/04/21 09:31:28;;;;;;;0.60;0.60;;;9.00;44.10;;;;;;11154276;26;20788;-71
2024/04/21 09:36:36;;;;;;;0.60;0.60;;;9.00;43.80;;;;;;11149834;26;20259;-71
2024/04/21 09:41:44;;;;;;;0.90;0.90;;;9.00;43.90;;;;;;11140399;26;20263;-71
2024/04/21 09:46:49;;;;;;;1.63;1.00;;;9.00;43.50;;;;;;11155676;26;20305;-71
2024/04/21 09:51:58;;;;;;;1.37;1.37;;;9.00;44.00;;;;;;11154046;26;21042;-71
2024/04/21 09:57:11;;;;;;;1.30;1.30;;;9.00;44.20;;;;;;11141960;26;20599;-71
2024/04/21 10:02:22;;;;;;;1.03;1.03;;;9.10;43.90;;;;;;11150914;26;20264;-71
2024/04/21 10:07:33;;;;;;;0.80;0.80;;;9.20;43.90;;;;;;11148393;26;20290;-72
2024/04/21 10:12:38;;;;;;;1.00;1.00;;;9.20;44.10;;;;;;11152281;26;20274;-72
2024/04/21 10:17:55;;;;;;;0.93;0.93;;;9.30;43.90;;;;;;11150432;26;22309;-71
2024/04/21 10:23:06;;;;;;;1.10;1.10;;;9.40;43.70;;;;;;11148404;26;20293;-71
2024/04/21 10:28:12;;;;;;;1.20;1.20;;;9.40;43.90;;;;;;11150356;26;20262;-71
2024/04/21 10:33:17;;;;;;;1.00;1.00;;;9.50;44.30;;;;;;11153330;26;20263;-71
2024/04/21 10:38:25;;;;;;;0.87;0.87;;;9.70;44.30;;;;;;11142106;26;20256;-71
2024/04/21 10:43:30;;;;;;;0.90;0.90;;;9.80;44.20;;;;;;11160626;26;20702;-71
2024/04/21 10:48:35;;;;;;;0.73;0.73;;;10.10;43.40;;;;;;11147695;26;20451;-71
2024/04/21 10:53:42;;;;;;;0.77;0.77;;;10.30;42.80;;;;;;11157225;26;20259;-70
2024/04/21 10:58:50;;;;;;;0.80;0.80;;;10.40;42.00;;;;;;11160327;26;20983;-71
2024/04/21 11:03:55;;;;;;;0.80;0.80;;;10.50;41.50;;;;;;11146347;26;20641;-70
2024/04/21 11:09:03;;;;;;;1.20;1.20;;;10.60;41.20;;;;;;11143572;26;20296;-71
2024/04/21 11:14:07;;;;;;;0.70;0.70;;;10.60;41.20;;;;;;11148443;26;20761;-70
2024/04/21 11:19:14;;;;;;;0.60;0.60;;;10.60;41.40;;;;;;11149230;26;20306;-72
2024/04/21 11:24:22;;;;;;;0.70;0.70;;;10.60;40.40;;;;;;11152635;26;20266;-70
2024/04/21 11:29:27;;;;;;;0.50;0.50;;;10.50;40.30;;;;;;11146635;26;20311;-71
2024/04/21 11:34:32;;;;;;;0.40;0.40;;;10.40;40.60;;;;;;11142879;26;20259;-71
2024/04/21 11:39:40;;;;;;;0.40;0.40;;;10.40;40.70;;;;;;11158581;26;20382;-71
2024/04/21 11:44:45;;;;;;;0.40;0.40;;;10.40;40.30;;;;;;11152483;26;20259;-71
2024/04/21 11:49:50;;;;;;;0.50;0.50;;;10.60;40.40;;;;;;11153924;26;20578;-71
2024/04/21 11:54:57;;;;;;;0.40;0.40;;;10.70;40.50;;;;;;11150277;26;20265;-71
2024/04/21 12:00:02;;;;;;;0.50;0.50;;;10.80;39.50;;;;;;11153577;26;20263;-71
2024/04/21 12:05:09;;;;;;;0.70;0.70;;;10.80;39.10;;;;;;11154237;26;20290;-71
2024/04/21 12:10:17;;;;;;;0.60;0.60;;;10.70;39.30;;;;;;11156329;26;24478;-70
2024/04/21 12:15:23;;;;;;;0.57;0.57;;;10.70;38.90;;;;;;11156410;26;20313;-71
2024/04/21 12:20:29;;;;;;;0.60;0.60;;;10.60;39.60;;;;;;11168389;26;20295;-70
2024/04/21 12:25:37;;;;;;;1.23;0.70;;;10.60;40.00;;;;;;11118752;26;20293;-73
2024/04/21 12:30:43;;;;;;;0.70;0.70;;;10.60;39.60;;;;;;11173626;26;20258;-71
2024/04/21 12:35:48;;;;;;;0.73;0.73;;;10.70;39.60;;;;;;11145037;26;20267;-71
2024/04/21 12:40:56;;;;;;;0.80;0.80;;;10.70;40.00;;;;;;11144054;26;20253;-70
2024/04/21 12:46:01;;;;;;;0.80;0.80;;;10.70;39.40;;;;;;11121394;26;21466;-70
2024/04/21 12:51:06;;;;;;;0.70;0.70;;;10.80;39.30;;;;;;11112011;26;20286;-71
2024/04/21 12:56:14;;;;;;;0.60;0.60;;;10.70;39.40;;;;;;11087887;26;20263;-71
2024/04/21 13:01:19;;;;;;;0.93;0.90;;;10.80;39.40;;;;;;11126703;26;20309;-71
2024/04/21 13:06:24;;;;;;;0.80;0.80;;;10.80;39.30;;;;;;11117149;26;20251;-71
2024/04/21 13:11:35;;;;;;;0.90;0.90;;;10.80;39.00;;;;;;11127425;26;20388;-71
2024/04/21 13:16:40;;;;;;;1.00;1.00;;;10.80;39.20;;;;;;11146228;26;20263;-71
2024/04/21 13:21:46;;;;;;;0.80;0.80;;;10.80;39.50;;;;;;11145290;26;20313;-71
2024/04/21 13:26:54;;;;;;;18.83;17.13;;;10.90;39.10;;;;;;11128678;26;20293;-71
2024/04/21 13:32:00;;;;;;;2.33;2.22;;;10.90;38.50;;;;;;11078638;26;1023675;-71
2024/04/21 13:37:05;;;;;;;1.60;1.50;;;10.90;38.90;;;;;;11131659;26;20416;-71
2024/04/21 13:42:12;;;;;;;1.20;1.20;;;10.80;39.00;;;;;;11135359;26;20301;-71
2024/04/21 13:47:18;;;;;;;0.70;0.70;;;10.80;37.50;;;;;;11139944;26;20310;-71
2024/04/21 13:52:23;;;;;;;1.47;1.43;;;10.70;37.90;;;;;;11136621;26;20355;-72
2024/04/21 13:57:31;;;;;;;1.33;1.10;;;10.70;38.30;;;;;;11133492;26;20271;-71
2024/04/21 14:02:36;;;;;;;1.10;1.10;;;10.70;37.60;;;;;;11122237;26;20262;-71
2024/04/21 14:07:41;;;;;;;1.00;1.00;;;10.70;38.50;;;;;;11136408;26;20263;-71
2024/04/21 14:12:49;;;;;;;0.90;0.90;;;10.80;38.70;;;;;;11164111;26;20259;-71
2024/04/21 14:17:54;;;;;;;0.90;0.90;;;10.80;38.20;;;;;;11139870;26;20258;-72
2024/04/21 14:22:59;;;;;;;0.90;0.90;;;10.80;38.70;;;;;;11136132;26;20308;-71
2024/04/21 14:28:07;;;;;;;0.90;0.90;;;10.90;38.30;;;;;;11139689;26;20310;-72
2024/04/21 14:33:12;;;;;;;0.80;0.80;;;10.90;37.50;;;;;;11138766;26;21138;-72
2024/04/21 14:38:17;;;;;;;1.57;1.10;;;11.00;38.60;;;;;;11136498;26;20259;-72
2024/04/21 14:43:26;;;;;;;1.20;1.10;;;11.00;39.20;;;;;;11129653;26;20263;-71
2024/04/21 14:48:31;;;;;;;1.40;1.30;;;11.10;39.10;;;;;;11125279;26;20343;-71
2024/04/21 14:53:36;;;;;;;1.50;1.40;;;11.10;39.00;;;;;;11138236;26;20270;-72
2024/04/21 14:58:44;;;;;;;1.00;1.00;;;11.10;39.30;;;;;;11129631;26;20254;-71
2024/04/21 15:03:50;;;;;;;2.03;1.10;;;11.10;39.00;;;;;;11136223;26;20950;-72
2024/04/21 15:09:00;;;;;;;0.80;0.80;;;11.20;40.10;;;;;;11140961;26;20265;-71
2024/04/21 15:14:08;;;;;;;0.97;0.97;;;11.30;39.20;;;;;;11134710;26;20259;-71
2024/04/21 15:19:13;;;;;;;1.20;0.80;;;11.30;39.20;;;;;;11132220;26;20793;-71
2024/04/21 15:24:18;;;;;;;0.90;0.90;;;11.30;39.40;;;;;;11134331;26;20504;-71
2024/04/21 15:29:26;;;;;;;0.83;0.83;;;11.40;39.40;;;;;;11130589;26;20271;-71
2024/04/21 15:34:31;;;;;;;0.80;0.80;;;11.40;39.20;;;;;;11134068;26;20596;-71
2024/04/21 15:39:36;;;;;;;0.90;0.90;;;11.40;39.10;;;;;;11128950;26;20267;-71
2024/04/21 15:44:44;;;;;;;0.80;0.80;;;11.50;39.30;;;;;;11135498;26;21354;-71
2024/04/21 15:49:49;;;;;;;0.80;0.80;;;11.40;38.90;;;;;;11136918;26;20783;-71
2024/04/21 15:54:54;;;;;;;0.80;0.80;;;11.40;39.30;;;;;;11126343;26;20328;-71
2024/04/21 16:00:03;;;;;;;0.90;0.90;;;11.40;39.50;;;;;;11126575;26;20304;-71
2024/04/21 16:05:09;;;;;;;0.80;0.80;;;11.40;38.90;;;;;;11122861;26;20258;-71
2024/04/21 16:10:14;;;;;;;0.80;0.80;;;11.40;38.90;;;;;;11130574;26;20255;-71
2024/04/21 16:15:21;;;;;;;0.70;0.70;;;11.40;38.80;;;;;;11125192;26;20267;-71
2024/04/21 16:20:26;;;;;;;0.70;0.70;;;11.40;38.40;;;;;;11128949;26;20251;-71
2024/04/21 16:25:34;;;;;;;0.80;0.80;;;11.40;38.60;;;;;;11131986;26;20309;-71
2024/04/21 16:30:42;;;;;;;0.87;0.80;;;11.30;38.30;;;;;;11130987;26;20310;-71
2024/04/21 16:35:48;;;;;;;0.80;0.80;;;11.20;38.20;;;;;;11127736;26;21122;-71
2024/04/21 16:40:54;;;;;;;1.00;1.00;;;11.20;38.40;;;;;;11129806;26;20312;-72
2024/04/21 16:46:04;;;;;;;0.80;0.80;;;11.10;38.40;;;;;;11128728;26;20305;-71
2024/04/21 16:51:10;;;;;;;0.77;0.70;;;11.10;38.30;;;;;;11117691;26;20364;-71
2024/04/21 16:56:17;;;;;;;0.60;0.60;;;11.00;38.60;;;;;;11132330;26;20298;-72
2024/04/21 17:01:30;;;;;;;0.70;0.70;;;11.00;38.50;;;;;;11139053;26;20256;-72
2024/04/21 17:06:35;;;;;;;0.70;0.70;;;10.90;38.60;;;;;;11131847;26;20302;-71
2024/04/21 17:11:45;;;;;;;0.70;0.70;;;10.90;38.60;;;;;;11126205;26;20267;-71
2024/04/21 17:16:52;;;;;;;0.60;0.60;;;10.70;38.20;;;;;;11129376;26;20286;-72
2024/04/21 17:21:57;;;;;;;0.60;0.60;;;10.60;38.20;;;;;;11142484;26;20255;-72
2024/04/21 17:27:02;;;;;;;0.50;0.50;;;10.40;38.40;;;;;;11139372;26;20368;-72
2024/04/21 17:32:10;;;;;;;0.70;0.70;;;10.20;38.60;;;;;;11127885;26;20831;-73
2024/04/21 17:37:15;;;;;;;0.70;0.70;;;10.10;38.50;;;;;;11132777;26;20745;-73
2024/04/21 17:42:21;;;;;;;0.60;0.60;;;9.90;39.40;;;;;;11128344;26;20355;-72
2024/04/21 17:47:29;;;;;;;0.80;0.80;;;9.80;39.60;;;;;;11136853;26;20259;-72
2024/04/21 17:52:34;;;;;;;1.07;1.00;;;9.60;39.70;;;;;;11129370;26;20273;-72
2024/04/21 17:57:39;;;;;;;0.80;0.80;;;9.50;39.80;;;;;;11127518;26;20262;-72
2024/04/21 18:02:47;;;;;;;0.70;0.70;;;9.40;39.80;;;;;;11127650;26;20259;-72
2024/04/21 18:07:54;;;;;;;0.80;0.80;;;9.40;40.20;;;;;;11135376;26;20971;-72
2024/04/21 18:12:59;;;;;;;0.70;0.70;;;9.30;40.00;;;;;;11134225;26;20334;-72
2024/04/21 18:18:07;;;;;;;1.10;1.10;;;9.20;40.20;;;;;;11130348;26;20251;-72
2024/04/21 18:23:14;;;;;;;1.00;1.00;;;9.10;40.10;;;;;;11136914;26;20256;-72
2024/04/21 18:28:19;;;;;;;1.10;1.10;;;9.10;40.10;;;;;;11138817;26;20268;-72
2024/04/21 18:33:27;;;;;;;0.83;0.83;;;9.00;40.00;;;;;;11130602;26;20306;-72
2024/04/21 18:38:32;;;;;;;0.87;0.87;;;9.00;40.00;;;;;;11136414;26;20297;-72
2024/04/21 18:43:37;;;;;;;1.03;1.00;;;8.90;40.00;;;;;;11128004;26;20300;-72
2024/04/21 18:48:44;;;;;;;0.90;0.90;;;8.90;40.00;;;;;;11136457;26;20259;-72
2024/04/21 18:53:49;;;;;;;0.63;0.63;;;8.80;39.90;;;;;;11136078;26;20396;-72
2024/04/21 18:58:54;;;;;;;0.80;0.80;;;8.70;39.80;;;;;;11130220;26;20261;-72
2024/04/21 19:04:03;;;;;;;0.90;0.90;;;8.60;39.70;;;;;;11119789;26;20297;-72
2024/04/21 19:09:08;;;;;;;0.90;0.90;;;8.60;39.70;;;;;;11136639;26;20259;-72
2024/04/21 19:14:14;;;;;;;1.00;1.00;;;8.50;39.60;;;;;;11144070;26;20264;-73
2024/04/21 19:19:23;;;;;;;0.93;0.93;;;8.40;39.60;;;;;;11138827;26;20258;-72
2024/04/21 19:24:30;;;;;;;1.10;1.10;;;8.40;39.60;;;;;;11139517;26;20587;-72
2024/04/21 19:29:35;;;;;;;1.40;1.30;;;8.30;39.20;;;;;;11126880;26;20290;-73
2024/04/21 19:34:42;;;;;;;1.67;1.57;;;8.10;39.00;;;;;;11118880;26;20306;-73
2024/04/21 19:39:51;;;;;;;1.80;1.70;;;8.00;39.20;;;;;;11128914;26;20368;-72
2024/04/21 19:44:56;;;;;;;1.50;1.40;;;7.80;39.00;;;;;;11126892;26;20270;-73
2024/04/21 19:50:05;;;;;;;1.30;1.20;;;7.70;39.00;;;;;;11144226;26;20564;-72
2024/04/21 19:55:10;;;;;;;1.67;1.57;;;7.60;38.90;;;;;;11133146;26;20270;-72
2024/04/21 20:00:16;;;;;;;2.00;1.90;;;7.50;38.80;;;;;;11172103;26;20332;-72
2024/04/21 20:05:23;;;;;;;2.20;2.10;;;7.50;39.10;;;;;;11155260;26;20258;-72
2024/04/21 20:10:28;;;;;;;2.50;2.40;;;7.40;39.50;;;;;;11154465;26;20264;-72
2024/04/21 20:21:04;;;;;;;3.30;3.10;;;7.30;39.50;;;;;;11149636;26;20265;-72
2024/04/21 20:26:14;;;;;;;3.13;2.93;;;7.30;39.90;;;;;;11146078;26;20282;-72
2024/04/21 20:31:23;;;;;;;3.70;3.40;;;7.20;40.00;;;;;;11163769;26;20625;-71
2024/04/21 20:36:31;;;;;;;3.93;3.63;;;7.20;40.00;;;;;;11148403;26;20275;-71
2024/04/21 20:41:37;;;;;;;3.97;3.60;;;7.20;40.40;;;;;;11142215;26;20256;-71
2024/04/21 20:46:42;;;;;;;4.50;4.10;;;7.20;40.20;;;;;;11148333;26;20251;-71
2024/04/21 20:51:50;;;;;;;4.13;3.83;;;7.20;40.30;;;;;;11142593;26;20313;-71
2024/04/21 20:56:55;;;;;;;4.20;3.90;;;7.20;40.50;;;;;;11144490;26;20854;-71
2024/04/21 21:02:00;;;;;;;3.80;3.53;;;7.20;40.40;;;;;;11140125;26;20300;-71
2024/04/21 21:07:08;;;;;;;4.73;4.40;;;7.20;40.50;;;;;;11140512;26;20357;-71
2024/04/21 21:12:13;;;;;;;4.63;4.23;;;7.20;40.90;;;;;;11156802;26;21007;-71
2024/04/21 21:17:18;;;;;;;4.60;4.20;;;7.30;40.80;;;;;;11138382;26;20258;-71
2024/04/21 21:22:26;;;;;;;4.90;4.50;;;7.30;40.90;;;;;;11158551;26;20309;-72
2024/04/21 21:27:33;;;;;;;4.63;4.23;;;7.30;41.20;;;;;;11161346;26;20262;-72
2024/04/21 21:32:39;;;;;;;4.27;3.97;;;7.30;40.90;;;;;;11148479;26;20592;-72
2024/04/21 21:37:46;;;;;;;4.20;3.90;;;7.30;41.00;;;;;;11150659;26;20274;-72
2024/04/21 21:42:51;;;;;;;4.57;4.17;;;7.30;41.30;;;;;;11146466;26;20259;-72
2024/04/21 21:47:57;;;;;;;4.23;3.90;;;7.40;41.20;;;;;;11152690;26;20693;-72
2024/04/21 21:53:04;;;;;;;4.13;3.83;;;7.40;41.20;;;;;;11155114;26;20302;-72
2024/04/21 21:58:09;;;;;;;4.30;3.90;;;7.40;41.50;;;;;;11149303;26;21071;-72
2024/04/21 22:03:14;;;;;;;4.27;3.97;;;7.40;41.20;;;;;;11155865;26;20753;-72
2024/04/21 22:08:22;;;;;;;4.40;3.97;;;7.50;41.30;;;;;;11155298;26;20259;-72
2024/04/21 22:13:27;;;;;;;4.43;4.03;;;7.50;41.60;;;;;;11147416;26;21080;-72
2024/04/21 22:18:32;;;;;;;4.40;3.80;;;7.60;41.40;;;;;;11164619;26;20969;-72
2024/04/21 22:23:40;;;;;;;4.33;4.03;;;7.60;41.30;;;;;;11145468;26;20401;-72
2024/04/21 22:28:45;;;;;;;4.40;4.00;;;7.60;41.60;;;;;;11157658;26;20790;-72
2024/04/21 22:33:50;;;;;;;4.70;4.30;;;7.60;42.10;;;;;;11165130;26;20302;-72
2024/04/21 22:38:58;;;;;;;4.20;3.90;;;7.60;41.30;;;;;;11135496;26;20659;-72
2024/04/21 22:44:03;;;;;;;4.37;4.00;;;7.60;41.40;;;;;;11160620;26;20759;-72
2024/04/21 22:49:08;;;;;;;3.83;3.50;;;7.60;41.10;;;;;;11146601;26;20306;-73
2024/04/21 22:54:15;;;;;;;3.87;3.30;;;7.60;41.00;;;;;;11149837;26;20595;-72
2024/04/21 22:59:20;;;;;;;4.83;3.40;;;7.60;41.10;;;;;;11128893;26;20621;-73
2024/04/21 23:04:25;;;;;;;3.70;3.40;;;7.50;40.90;;;;;;11148829;26;20259;-73
2024/04/21 23:09:35;;;;;;;3.43;3.23;;;7.50;41.00;;;;;;11136980;26;20260;-73
2024/04/21 23:14:40;;;;;;;3.70;3.40;;;7.40;41.10;;;;;;11144158;26;20600;-73
2024/04/21 23:19:45;;;;;;;2.97;2.77;;;7.40;40.90;;;;;;11141842;26;20285;-73
2024/04/21 23:24:53;;;;;;;3.33;3.03;;;7.40;41.00;;;;;;11158112;26;20259;-72
2024/04/21 23:29:58;;;;;;;3.37;2.93;;;7.30;41.10;;;;;;11158021;26;20312;-72
2024/04/21 23:35:03;;;;;;;3.20;3.00;;;7.40;41.10;;;;;;11159654;26;20266;-73
2024/04/21 23:40:11;;;;;;;2.90;2.70;;;7.30;40.90;;;;;;11148123;26;20286;-72
2024/04/21 23:45:16;;;;;;;3.10;2.80;;;7.30;41.00;;;;;;11163041;26;20359;-73
2024/04/21 23:50:21;;;;;;;3.20;2.90;;;7.30;40.90;;;;;;11165422;26;20283;-72
2024/04/21 23:55:29;;;;;;;3.93;2.90;;;7.20;40.70;;;;;;11159055;26;20263;-72
